Time;durP1;ratioP1;P1;durP2;ratioP2;P2;SDS_P1;SDS_P2;PMS_P1;PMS_P2;Temp;Humidity;BMP_temperature;BMP_pressure;BME280_temperature;BME280_humidity;BME280_pressure;Samples;Min_cycle;Max_cycle;Signal;HPM_P1;HPM_P2
2023/01/16 00:01:25;;;;;;;1.70;1.70;;;17.70;67.60;;;;;;5075900;27;44690;-71
2023/01/16 00:03:53;;;;;;;1.70;1.70;;;17.70;67.60;;;;;;5086653;27;43471;-72
2023/01/16 00:06:21;;;;;;;1.77;1.77;;;17.70;67.70;;;;;;5086778;27;43473;-73
2023/01/16 00:08:50;;;;;;;1.60;1.60;;;17.60;67.80;;;;;;5086612;27;44539;-72
2023/01/16 00:11:18;;;;;;;1.60;1.60;;;17.60;67.70;;;;;;5086355;27;43502;-72
2023/01/16 00:13:46;;;;;;;1.50;1.50;;;17.60;67.70;;;;;;5086519;27;43383;-72
2023/01/16 00:16:14;;;;;;;1.47;1.47;;;17.60;67.80;;;;;;5088596;27;43387;-71
2023/01/16 00:18:42;;;;;;;1.60;1.60;;;17.60;68.00;;;;;;5086153;27;43611;-73
2023/01/16 00:21:10;;;;;;;1.60;1.60;;;17.60;68.00;;;;;;5083035;27;43368;-71
2023/01/16 00:23:38;;;;;;;1.87;1.80;;;17.50;68.20;;;;;;5068487;27;43495;-72
2023/01/16 00:26:09;;;;;;;1.47;1.47;;;17.50;68.00;;;;;;5066218;27;43610;-71
2023/01/16 00:28:37;;;;;;;1.50;1.50;;;17.60;68.10;;;;;;5083647;27;43780;-71
2023/01/16 00:31:05;;;;;;;1.50;1.50;;;17.50;68.10;;;;;;5085244;27;43436;-71
2023/01/16 00:33:33;;;;;;;1.50;1.50;;;17.50;68.10;;;;;;5090453;27;43506;-71
2023/01/16 00:36:01;;;;;;;1.30;1.30;;;17.50;68.20;;;;;;5091403;27;43438;-72
2023/01/16 00:38:29;;;;;;;1.50;1.50;;;17.50;68.40;;;;;;5088402;27;43803;-71
2023/01/16 00:40:57;;;;;;;1.70;1.70;;;17.50;68.30;;;;;;5089102;27;43513;-71
2023/01/16 00:43:27;;;;;;;1.60;1.60;;;17.60;68.00;;;;;;5087279;27;43493;-71
2023/01/16 00:45:56;;;;;;;1.30;1.30;;;17.60;67.80;;;;;;5088733;27;43621;-70
2023/01/16 00:48:24;;;;;;;1.40;1.40;;;17.60;67.80;;;;;;5085547;27;43788;-72
2023/01/16 00:50:52;;;;;;;1.30;1.30;;;17.60;67.90;;;;;;5090999;27;44318;-70
2023/01/16 00:53:20;;;;;;;1.60;1.60;;;17.60;68.00;;;;;;5087217;27;43513;-72
2023/01/16 00:55:48;;;;;;;1.30;1.30;;;17.60;68.00;;;;;;5086550;27;43607;-72
2023/01/16 00:58:16;;;;;;;1.20;1.20;;;17.60;68.00;;;;;;5089767;27;44267;-70
2023/01/16 01:00:45;;;;;;;1.20;1.20;;;17.60;68.00;;;;;;5089736;27;43440;-70
2023/01/16 01:03:13;;;;;;;1.20;1.20;;;17.50;68.00;;;;;;5084896;27;44082;-70
2023/01/16 01:05:41;;;;;;;1.40;1.40;;;17.50;68.10;;;;;;5084159;27;43462;-71
2023/01/16 01:08:09;;;;;;;1.30;1.30;;;17.50;68.20;;;;;;5085906;27;43610;-71
2023/01/16 01:10:37;;;;;;;1.23;1.23;;;17.50;68.30;;;;;;5084657;27;43434;-71
2023/01/16 01:13:05;;;;;;;1.33;1.33;;;17.60;68.10;;;;;;5068418;27;43806;-70
2023/01/16 01:15:33;;;;;;;1.07;1.07;;;17.70;67.90;;;;;;5093425;27;44241;-70
2023/01/16 01:18:02;;;;;;;1.47;1.47;;;17.70;67.70;;;;;;5081712;27;43908;-72
2023/01/16 01:20:30;;;;;;;1.33;1.33;;;17.60;67.70;;;;;;5089402;27;43852;-70
2023/01/16 01:22:58;;;;;;;1.30;1.30;;;17.60;67.80;;;;;;5085099;27;43528;-70
2023/01/16 01:25:26;;;;;;;1.40;1.40;;;17.60;68.00;;;;;;5088213;27;43886;-72
2023/01/16 01:27:54;;;;;;;1.20;1.20;;;17.60;67.90;;;;;;5086955;27;44800;-71
2023/01/16 01:30:22;;;;;;;1.37;1.27;;;17.60;68.00;;;;;;5089109;27;43473;-72
2023/01/16 01:32:50;;;;;;;1.40;1.40;;;17.50;68.00;;;;;;5087056;27;43728;-72
2023/01/16 01:35:19;;;;;;;1.20;1.20;;;17.50;68.10;;;;;;5088801;27;43510;-72
2023/01/16 01:37:47;;;;;;;1.33;1.33;;;17.50;68.20;;;;;;5076757;27;46015;-72
2023/01/16 01:40:15;;;;;;;1.30;1.30;;;17.50;68.40;;;;;;5088561;27;43431;-71
2023/01/16 01:42:43;;;;;;;1.30;1.30;;;17.50;68.30;;;;;;5092521;27;43524;-71
2023/01/16 01:45:19;;;;;;;1.30;1.30;;;17.50;68.30;;;;;;5084920;27;43459;-69
2023/01/16 01:47:51;;;;;;;1.40;1.40;;;17.50;68.30;;;;;;5068202;27;45579;-71
2023/01/16 01:50:24;;;;;;;1.40;1.40;;;17.40;68.30;;;;;;5096730;27;43566;-70
2023/01/16 01:52:52;;;;;;;1.20;1.20;;;17.40;68.30;;;;;;5075718;27;44020;-71
2023/01/16 01:55:20;;;;;;;1.20;1.20;;;17.40;68.50;;;;;;5066982;27;43479;-71
2023/01/16 01:57:52;;;;;;;1.40;1.40;;;17.50;68.50;;;;;;5083916;27;43928;-71
2023/01/16 02:00:21;;;;;;;1.30;1.30;;;17.60;68.00;;;;;;5089777;27;44107;-71
2023/01/16 02:02:51;;;;;;;1.10;1.10;;;17.70;67.60;;;;;;5087051;27;44537;-72
2023/01/16 02:05:22;;;;;;;1.10;1.10;;;17.70;67.50;;;;;;5089838;27;43497;-70
2023/01/16 02:07:50;;;;;;;1.17;1.17;;;17.70;67.50;;;;;;5089022;27;43608;-72
2023/01/16 02:10:22;;;;;;;1.07;1.07;;;17.70;67.80;;;;;;5065284;28;44720;-71
2023/01/16 02:12:51;;;;;;;1.30;1.30;;;17.60;67.70;;;;;;5062088;28;43464;-71
2023/01/16 02:15:19;;;;;;;1.03;1.03;;;17.60;67.70;;;;;;5086454;27;44087;-71
2023/01/16 02:20:35;;;;;;;0.93;0.93;;;17.60;67.90;;;;;;5082115;27;43932;-72
2023/01/16 02:23:32;;;;;;;1.30;1.30;;;17.50;68.00;;;;;;5062876;27;44253;-70
2023/01/16 02:26:30;;;;;;;1.20;1.20;;;17.50;68.20;;;;;;5071465;28;44263;-71
2023/01/16 02:29:23;;;;;;;1.07;1.07;;;17.50;68.10;;;;;;5063026;27;43557;-71
2023/01/16 02:31:54;;;;;;;1.20;1.20;;;17.50;68.20;;;;;;5085435;27;43564;-72
2023/01/16 02:34:35;;;;;;;1.00;1.00;;;17.50;68.20;;;;;;5082643;27;43423;-73
2023/01/16 02:37:09;;;;;;;1.00;1.00;;;17.40;68.20;;;;;;5084109;27;44013;-72
2023/01/16 02:39:41;;;;;;;1.23;1.23;;;17.40;68.30;;;;;;5092482;27;44044;-72
2023/01/16 02:42:14;;;;;;;1.07;1.07;;;17.40;68.20;;;;;;5084697;27;43578;-71
2023/01/16 02:44:44;;;;;;;1.10;1.10;;;17.40;68.20;;;;;;5071400;27;43402;-71
2023/01/16 02:47:16;;;;;;;1.17;1.17;;;17.40;68.20;;;;;;5094931;27;43827;-71
2023/01/16 02:49:48;;;;;;;1.10;1.10;;;17.40;68.30;;;;;;5088821;27;43987;-72
2023/01/16 02:52:19;;;;;;;1.43;1.20;;;17.40;68.40;;;;;;5068286;27;45136;-72
2023/01/16 02:54:49;;;;;;;1.20;1.03;;;17.40;68.50;;;;;;5095353;27;44708;-72
2023/01/16 02:57:18;;;;;;;1.20;1.20;;;17.50;68.50;;;;;;5094186;27;43929;-72
2023/01/16 02:59:45;;;;;;;1.13;1.13;;;17.60;68.10;;;;;;5087611;27;43878;-72
2023/01/16 03:02:15;;;;;;;1.00;1.00;;;17.70;67.80;;;;;;5089557;27;43467;-71
2023/01/16 03:04:47;;;;;;;1.00;1.00;;;17.70;67.60;;;;;;5086333;27;43937;-72
2023/01/16 03:07:36;;;;;;;1.10;1.10;;;17.60;67.60;;;;;;5091238;27;43461;-71
2023/01/16 03:10:19;;;;;;;1.00;1.00;;;17.60;67.80;;;;;;5085941;27;43864;-71
2023/01/16 03:12:52;;;;;;;1.10;1.10;;;17.60;67.80;;;;;;5088081;27;44138;-72
2023/01/16 03:15:22;;;;;;;0.90;0.90;;;17.60;67.80;;;;;;5070172;27;43459;-71
2023/01/16 03:17:58;;;;;;;1.10;1.10;;;17.50;67.90;;;;;;5068950;27;43817;-70
2023/01/16 03:20:31;;;;;;;1.00;1.00;;;17.50;68.00;;;;;;5086470;27;43941;-73
2023/01/16 03:23:03;;;;;;;0.90;0.90;;;17.50;68.10;;;;;;5086460;27;43419;-72
2023/01/16 03:25:34;;;;;;;1.10;1.10;;;17.40;68.20;;;;;;5090978;27;43400;-72
2023/01/16 03:28:07;;;;;;;1.00;1.00;;;17.50;68.20;;;;;;5088845;27;43495;-71
2023/01/16 03:30:38;;;;;;;1.00;1.00;;;17.50;68.30;;;;;;5068590;27;45968;-71
2023/01/16 03:33:08;;;;;;;1.17;1.17;;;17.40;68.20;;;;;;5089600;27;44000;-71
2023/01/16 03:35:38;;;;;;;0.87;0.87;;;17.40;68.30;;;;;;5089403;27;43519;-71
2023/01/16 03:38:07;;;;;;;0.97;0.97;;;17.40;68.40;;;;;;5084441;27;43894;-72
2023/01/16 03:40:36;;;;;;;1.00;1.00;;;17.40;68.50;;;;;;5067075;27;45997;-71
2023/01/16 03:43:06;;;;;;;1.10;1.10;;;17.40;68.40;;;;;;5073420;27;45011;-70
2023/01/16 03:45:36;;;;;;;1.00;1.00;;;17.60;68.10;;;;;;5070966;27;43495;-70
2023/01/16 03:48:06;;;;;;;1.00;1.00;;;17.60;67.70;;;;;;5097073;27;43419;-71
2023/01/16 03:50:34;;;;;;;0.90;0.90;;;17.60;67.60;;;;;;5087720;27;43612;-70
2023/01/16 03:53:05;;;;;;;0.90;0.90;;;17.60;67.70;;;;;;5086671;27;44951;-72
2023/01/16 03:55:36;;;;;;;0.87;0.87;;;17.60;67.90;;;;;;5085732;27;43595;-72
2023/01/16 03:58:06;;;;;;;0.97;0.97;;;17.60;67.90;;;;;;5074600;27;43529;-70
2023/01/16 04:00:38;;;;;;;0.90;0.90;;;17.60;67.90;;;;;;5090230;27;43900;-71
2023/01/16 04:03:10;;;;;;;0.80;0.80;;;17.50;67.90;;;;;;5090480;27;43467;-72
2023/01/16 04:05:40;;;;;;;1.00;1.00;;;17.50;68.00;;;;;;5089154;27;43538;-72
2023/01/16 04:08:10;;;;;;;1.07;1.07;;;17.50;68.20;;;;;;5073412;27;43879;-72
2023/01/16 04:10:40;;;;;;;1.00;1.00;;;17.40;68.20;;;;;;5083748;27;44094;-70
2023/01/16 04:13:09;;;;;;;1.00;1.00;;;17.40;68.20;;;;;;5090665;27;44010;-72
2023/01/16 04:15:45;;;;;;;0.77;0.77;;;17.40;68.20;;;;;;5061568;27;44986;-72
2023/01/16 04:18:14;;;;;;;1.00;1.00;;;17.40;68.20;;;;;;5082767;27;43442;-72
2023/01/16 04:20:43;;;;;;;0.70;0.70;;;17.40;68.30;;;;;;5090335;27;43899;-70
2023/01/16 04:23:12;;;;;;;0.90;0.90;;;17.40;68.40;;;;;;5092174;27;43434;-71
2023/01/16 04:25:40;;;;;;;0.87;0.87;;;17.40;68.50;;;;;;5086147;27;43487;-71
2023/01/16 04:28:08;;;;;;;0.90;0.90;;;17.40;68.50;;;;;;5066417;27;44034;-71
2023/01/16 04:30:36;;;;;;;0.70;0.70;;;17.50;68.30;;;;;;5092433;27;43864;-71
2023/01/16 04:33:04;;;;;;;0.80;0.80;;;17.60;68.00;;;;;;5070072;27;44597;-73
2023/01/16 04:35:33;;;;;;;0.80;0.80;;;17.60;67.90;;;;;;5101709;27;43376;-71
2023/01/16 04:38:01;;;;;;;0.83;0.83;;;17.50;67.90;;;;;;5091922;27;43830;-71
2023/01/16 04:40:29;;;;;;;0.90;0.90;;;17.50;68.00;;;;;;5088712;27;43608;-70
2023/01/16 04:42:57;;;;;;;0.90;0.90;;;17.50;68.10;;;;;;5064591;27;45100;-72
2023/01/16 04:45:25;;;;;;;0.77;0.77;;;17.50;68.00;;;;;;5080918;27;43796;-72
2023/01/16 04:47:53;;;;;;;0.70;0.70;;;17.50;68.00;;;;;;5082781;27;45196;-72
2023/01/16 04:50:21;;;;;;;0.90;0.90;;;17.50;68.10;;;;;;5085141;27;44685;-72
2023/01/16 04:52:50;;;;;;;0.70;0.70;;;17.40;68.20;;;;;;5094265;27;43847;-71
2023/01/16 04:55:18;;;;;;;0.70;0.70;;;17.40;68.20;;;;;;5097224;27;44085;-71
2023/01/16 04:57:46;;;;;;;0.70;0.70;;;17.40;68.40;;;;;;5087889;27;44093;-72
2023/01/16 05:00:15;;;;;;;0.70;0.70;;;17.40;68.30;;;;;;5088845;27;43908;-70
2023/01/16 05:02:42;;;;;;;0.90;0.90;;;17.40;68.30;;;;;;5085529;27;43491;-71
2023/01/16 05:05:10;;;;;;;0.93;0.93;;;17.40;68.30;;;;;;5092571;27;43399;-71
2023/01/16 05:07:38;;;;;;;1.03;1.03;;;17.40;68.40;;;;;;5089243;27;43412;-71
2023/01/16 05:10:09;;;;;;;1.17;1.10;;;17.40;68.50;;;;;;5091763;27;43848;-73
2023/01/16 05:12:37;;;;;;;1.83;1.60;;;17.30;68.60;;;;;;5092663;27;43606;-70
2023/01/16 05:15:07;;;;;;;2.33;2.13;;;17.40;68.70;;;;;;5099136;27;43418;-71
2023/01/16 05:17:35;;;;;;;3.33;2.47;;;17.50;68.10;;;;;;5099408;27;43407;-71
2023/01/16 05:20:03;;;;;;;4.30;2.27;;;17.60;67.70;;;;;;5098736;27;43741;-72
2023/01/16 05:22:32;;;;;;;5.60;3.00;;;17.60;67.60;;;;;;5076012;28;45034;-71
2023/01/16 05:24:59;;;;;;;6.43;3.67;;;17.60;67.70;;;;;;5087914;27;44034;-71
2023/01/16 05:27:54;;;;;;;7.97;3.63;;;17.50;67.90;;;;;;5083130;27;44086;-71
2023/01/16 05:30:22;;;;;;;9.30;3.47;;;17.50;67.80;;;;;;5082227;27;45653;-71
2023/01/16 05:32:50;;;;;;;10.23;4.43;;;17.50;67.80;;;;;;5072112;27;44228;-71
2023/01/16 05:35:19;;;;;;;6.03;4.00;;;17.50;67.90;;;;;;5073375;27;44112;-72
2023/01/16 05:37:47;;;;;;;9.57;4.77;;;17.40;67.90;;;;;;5098840;27;43401;-72
2023/01/16 05:40:15;;;;;;;19.57;6.83;;;17.40;68.10;;;;;;5101233;27;43614;-71
2023/01/16 05:42:43;;;;;;;20.27;7.10;;;17.40;68.20;;;;;;5094373;27;43454;-71
2023/01/16 05:45:12;;;;;;;19.03;6.93;;;17.30;67.90;;;;;;5093849;27;43474;-70
2023/01/16 05:47:40;;;;;;;19.40;6.93;;;17.40;68.10;;;;;;5098297;27;43406;-71
2023/01/16 05:50:10;;;;;;;16.83;6.83;;;17.30;68.00;;;;;;5097385;27;43989;-71
2023/01/16 05:52:37;;;;;;;20.47;7.33;;;17.30;68.00;;;;;;5079425;27;44589;-71
2023/01/16 05:55:06;;;;;;;20.03;7.20;;;17.30;68.00;;;;;;5099596;27;43441;-72
2023/01/16 05:57:34;;;;;;;21.80;7.73;;;17.30;68.00;;;;;;5082420;27;43537;-72
2023/01/16 06:00:03;;;;;;;23.23;8.33;;;17.30;67.70;;;;;;5062035;27;45570;-72
2023/01/16 06:02:32;;;;;;;18.20;7.43;;;17.40;67.20;;;;;;5084700;27;43482;-72
2023/01/16 06:05:00;;;;;;;21.77;7.23;;;17.50;66.80;;;;;;5063504;27;44041;-70
2023/01/16 06:07:28;;;;;;;21.83;7.97;;;17.50;66.60;;;;;;5068412;27;43551;-71
2023/01/16 06:09:56;;;;;;;16.67;7.10;;;17.50;66.80;;;;;;5064629;27;46561;-71
2023/01/16 06:12:24;;;;;;;19.77;7.80;;;17.50;66.80;;;;;;5089191;27;43452;-71
2023/01/16 06:14:52;;;;;;;19.37;7.03;;;17.50;66.70;;;;;;5087790;27;43544;-72
2023/01/16 06:17:20;;;;;;;17.40;7.53;;;17.50;66.70;;;;;;5086991;27;44345;-71
2023/01/16 06:19:49;;;;;;;14.87;6.60;;;17.50;67.00;;;;;;5087248;27;43937;-69
2023/01/16 06:22:17;;;;;;;16.83;7.30;;;17.40;66.90;;;;;;5087809;27;43462;-71
2023/01/16 06:24:45;;;;;;;19.70;7.77;;;17.40;67.00;;;;;;5087097;27;43501;-71
2023/01/16 06:27:13;;;;;;;19.47;7.97;;;17.40;67.20;;;;;;5091970;27;43497;-72
2023/01/16 06:29:41;;;;;;;17.23;7.20;;;17.40;67.10;;;;;;5097875;27;43949;-71
2023/01/16 06:32:09;;;;;;;17.30;7.20;;;17.40;67.10;;;;;;5098913;27;43375;-71
2023/01/16 06:34:37;;;;;;;15.77;6.87;;;17.40;67.20;;;;;;5091246;27;43376;-71
2023/01/16 06:37:06;;;;;;;17.57;7.60;;;17.40;67.20;;;;;;5091068;27;43521;-72
2023/01/16 06:39:34;;;;;;;15.30;6.90;;;17.30;67.10;;;;;;5096039;27;43837;-70
2023/01/16 06:42:03;;;;;;;16.07;7.17;;;17.30;67.20;;;;;;5076384;27;45126;-72
2023/01/16 06:44:31;;;;;;;17.63;7.10;;;17.30;67.00;;;;;;5082784;27;43510;-71
2023/01/16 06:46:59;;;;;;;17.70;7.13;;;17.30;67.00;;;;;;5079788;27;43529;-71
2023/01/16 06:49:27;;;;;;;14.50;7.50;;;17.30;67.10;;;;;;5091340;27;44030;-70
2023/01/16 06:51:55;;;;;;;16.13;6.83;;;17.30;67.10;;;;;;5081782;27;45570;-72
2023/01/16 06:54:24;;;;;;;18.80;7.43;;;17.30;67.10;;;;;;5099121;27;43421;-72
2023/01/16 06:56:52;;;;;;;17.67;7.70;;;17.30;67.10;;;;;;5100047;27;43543;-71
2023/01/16 06:59:20;;;;;;;16.83;7.50;;;17.30;67.10;;;;;;5068968;27;46374;-69
2023/01/16 07:01:48;;;;;;;16.03;7.30;;;17.30;66.70;;;;;;5070828;27;45930;-71
2023/01/16 07:04:16;;;;;;;20.57;7.63;;;17.40;66.40;;;;;;5088264;27;43512;-70
2023/01/16 07:06:44;;;;;;;20.30;7.70;;;17.50;66.00;;;;;;5088915;27;44113;-72
2023/01/16 07:09:12;;;;;;;16.03;6.53;;;17.60;65.90;;;;;;5071847;27;45911;-71
2023/01/16 07:11:41;;;;;;;15.20;6.40;;;17.50;66.10;;;;;;5099963;27;43383;-71
2023/01/16 07:22:43;;;;;;;12.73;6.90;;;17.40;66.30;;;;;;5095648;27;43451;-70
2023/01/16 07:25:13;;;;;;;16.13;7.40;;;17.40;66.40;;;;;;5101589;27;43872;-70
2023/01/16 07:27:42;;;;;;;14.63;6.60;;;17.40;66.60;;;;;;5088351;27;43399;-71
2023/01/16 07:30:11;;;;;;;14.07;6.53;;;17.30;66.90;;;;;;5100694;27;44386;-71
2023/01/16 07:32:39;;;;;;;14.03;6.30;;;17.30;66.50;;;;;;5094939;27;43496;-69
2023/01/16 07:35:08;;;;;;;11.90;6.33;;;17.30;66.60;;;;;;5092839;27;43433;-70
2023/01/16 07:37:36;;;;;;;12.33;6.27;;;17.30;66.60;;;;;;5083417;27;43462;-73
2023/01/16 07:40:04;;;;;;;13.73;6.93;;;17.30;66.70;;;;;;5084946;27;43714;-70
2023/01/16 07:42:32;;;;;;;13.73;6.30;;;17.30;66.80;;;;;;5082123;27;43546;-71
2023/01/16 07:45:02;;;;;;;11.73;6.50;;;17.30;66.70;;;;;;5067666;27;44092;-70
2023/01/16 07:47:30;;;;;;;12.70;6.40;;;17.30;66.70;;;;;;5068911;27;43491;-72
2023/01/16 07:49:58;;;;;;;10.67;5.93;;;17.30;66.80;;;;;;5100161;27;43916;-71
2023/01/16 07:52:26;;;;;;;10.13;6.13;;;17.30;66.80;;;;;;5101994;27;44190;-70
2023/01/16 07:54:54;;;;;;;10.23;5.63;;;17.30;66.90;;;;;;5098282;27;43460;-73
2023/01/16 07:57:24;;;;;;;14.33;6.43;;;17.30;67.70;;;;;;5097957;27;43417;-71
2023/01/16 07:59:52;;;;;;;12.67;6.27;;;17.30;67.00;;;;;;5081000;27;45714;-71
2023/01/16 08:02:22;;;;;;;10.43;5.33;;;17.30;67.00;;;;;;5102774;27;43465;-71
2023/01/16 08:04:50;;;;;;;11.13;5.67;;;17.40;66.80;;;;;;5096497;27;43406;-70
2023/01/16 08:07:17;;;;;;;10.90;5.87;;;17.50;66.50;;;;;;5078720;27;43669;-70
2023/01/16 08:09:45;;;;;;;12.23;6.03;;;17.60;66.30;;;;;;5093187;27;43936;-72
2023/01/16 08:12:13;;;;;;;10.13;5.50;;;17.60;66.20;;;;;;5105708;27;43553;-72
2023/01/16 08:14:41;;;;;;;9.80;5.63;;;17.60;66.30;;;;;;5104150;27;44003;-71
2023/01/16 08:17:09;;;;;;;9.70;5.43;;;17.50;66.40;;;;;;5101734;27;43495;-71
2023/01/16 08:19:39;;;;;;;10.03;5.37;;;17.50;66.40;;;;;;5083387;27;45331;-70
2023/01/16 08:22:06;;;;;;;10.50;5.63;;;17.50;66.40;;;;;;5102588;27;43469;-71
2023/01/16 08:24:34;;;;;;;8.63;5.80;;;17.50;66.60;;;;;;5101905;27;43378;-71
2023/01/16 08:27:02;;;;;;;8.80;5.40;;;17.50;66.70;;;;;;5106681;27;43498;-71
2023/01/16 08:29:30;;;;;;;9.17;4.87;;;17.40;66.80;;;;;;5101953;27;43900;-70
2023/01/16 08:31:58;;;;;;;8.97;5.50;;;17.40;67.00;;;;;;5087692;27;44994;-71
2023/01/16 08:34:27;;;;;;;8.37;5.10;;;17.40;67.00;;;;;;5079198;27;43438;-70
2023/01/16 08:36:57;;;;;;;9.07;5.50;;;17.40;67.00;;;;;;5099432;27;43395;-70
2023/01/16 08:39:27;;;;;;;9.90;5.50;;;17.40;67.20;;;;;;5094423;27;43674;-72
2023/01/16 08:53:06;;;;;;;6.63;4.70;;;17.30;67.20;;;;;;5096087;27;43438;-70
2023/01/16 08:55:34;;;;;;;7.33;4.97;;;17.30;67.20;;;;;;5098504;27;43410;-70
2023/01/16 08:58:02;;;;;;;6.53;4.70;;;17.30;67.20;;;;;;5098124;27;43585;-72
2023/01/16 09:00:30;;;;;;;9.07;5.63;;;17.30;67.30;;;;;;5103554;27;43762;-69
2023/01/16 09:02:59;;;;;;;9.50;5.23;;;17.30;67.40;;;;;;5081477;27;44990;-69
2023/01/16 09:05:27;;;;;;;9.17;4.97;;;17.40;67.20;;;;;;5091976;27;43407;-72
2023/01/16 09:07:55;;;;;;;7.60;4.50;;;17.50;66.80;;;;;;5090876;27;43416;-71
2023/01/16 09:10:25;;;;;;;6.73;4.50;;;17.50;66.40;;;;;;5088690;27;43909;-70
2023/01/16 09:15:38;;;;;;;5.37;4.27;;;17.50;66.50;;;;;;5098326;27;43493;-72
2023/01/16 09:18:06;;;;;;;6.53;4.50;;;17.50;66.70;;;;;;5095680;27;43370;-72
2023/01/16 09:20:34;;;;;;;6.43;4.60;;;17.50;66.60;;;;;;5099849;27;43564;-70
2023/01/16 09:23:02;;;;;;;6.90;4.63;;;17.50;66.70;;;;;;5098652;27;43519;-69
2023/01/16 09:25:32;;;;;;;6.13;4.20;;;17.50;66.70;;;;;;5099898;27;44016;-71
2023/01/16 09:28:00;;;;;;;5.03;4.00;;;17.40;66.80;;;;;;5094539;27;43577;-70
2023/01/16 09:30:28;;;;;;;5.53;4.20;;;17.40;66.90;;;;;;5096526;27;43930;-70
2023/01/16 09:32:56;;;;;;;5.07;3.93;;;17.40;67.10;;;;;;5099861;27;43458;-72
2023/01/16 09:35:24;;;;;;;5.50;3.97;;;17.40;67.60;;;;;;5097064;27;43479;-72
2023/01/16 09:37:53;;;;;;;4.87;4.30;;;17.40;67.00;;;;;;5081089;27;43731;-70
2023/01/16 09:40:21;;;;;;;5.23;4.27;;;17.40;67.10;;;;;;5095061;27;44101;-70
2023/01/16 09:45:54;;;;;;;4.87;4.00;;;17.30;67.10;;;;;;5058429;27;43477;-72
2023/01/16 09:48:26;;;;;;;5.07;4.03;;;17.30;67.20;;;;;;5098635;27;43427;-70
2023/01/16 09:50:54;;;;;;;4.43;3.73;;;17.40;67.20;;;;;;5103761;27;43740;-70
2023/01/16 09:59:03;;;;;;;3.97;3.67;;;17.50;66.40;;;;;;5093022;27;43443;-71
2023/01/16 10:01:32;;;;;;;4.63;3.60;;;17.50;66.60;;;;;;5101176;27;43870;-70
2023/01/16 10:04:10;;;;;;;7.10;4.30;;;17.50;66.70;;;;;;5100189;27;43406;-71
2023/01/16 10:06:40;;;;;;;4.80;3.87;;;17.50;66.60;;;;;;5104390;27;43407;-72
2023/01/16 10:09:11;;;;;;;4.03;3.17;;;17.50;66.70;;;;;;5096501;27;43546;-71
2023/01/16 10:11:41;;;;;;;4.83;3.60;;;17.40;66.60;;;;;;5102124;27;43912;-72
2023/01/16 10:14:23;;;;;;;3.93;3.40;;;17.40;66.80;;;;;;5099944;27;43433;-70
2023/01/16 10:16:55;;;;;;;3.60;3.30;;;17.40;66.90;;;;;;5087361;27;43534;-70
2023/01/16 10:19:30;;;;;;;3.63;3.33;;;17.40;67.00;;;;;;5078533;28;43483;-72
2023/01/16 10:22:07;;;;;;;3.77;3.47;;;17.40;67.00;;;;;;5100669;27;44027;-71
2023/01/16 10:24:43;;;;;;;4.63;3.77;;;17.40;67.00;;;;;;5097712;27;43613;-72
2023/01/16 10:27:17;;;;;;;3.20;2.90;;;17.40;67.10;;;;;;5098611;27;43409;-70
2023/01/16 10:29:49;;;;;;;3.37;3.03;;;17.30;67.00;;;;;;5106071;27;43955;-71
2023/01/16 10:32:21;;;;;;;3.60;3.20;;;17.30;67.10;;;;;;5106140;27;44053;-72
2023/01/16 10:34:53;;;;;;;3.00;2.70;;;17.30;67.30;;;;;;5104544;27;43717;-71
2023/01/16 10:37:21;;;;;;;3.13;2.93;;;17.30;67.10;;;;;;5101133;27;43437;-71
2023/01/16 10:39:49;;;;;;;3.63;3.30;;;17.40;66.80;;;;;;5091155;27;43677;-70
2023/01/16 10:50:44;;;;;;;3.03;2.77;;;17.40;66.80;;;;;;5077364;27;43985;-72
2023/01/16 10:53:12;;;;;;;3.43;3.13;;;17.40;66.60;;;;;;5101962;27;43596;-71
2023/01/16 10:55:44;;;;;;;2.80;2.60;;;17.40;66.80;;;;;;5101773;27;43493;-70
2023/01/16 10:58:21;;;;;;;2.87;2.67;;;17.40;66.90;;;;;;5096645;27;43995;-71
2023/01/16 11:00:51;;;;;;;2.43;2.33;;;17.40;67.00;;;;;;5104472;27;43470;-71
2023/01/16 11:03:30;;;;;;;2.90;2.63;;;17.30;66.90;;;;;;5095287;27;43696;-72
2023/01/16 11:06:07;;;;;;;4.63;2.67;;;17.30;66.90;;;;;;5092945;27;43765;-71
2023/01/16 11:08:35;;;;;;;2.93;2.63;;;17.30;66.90;;;;;;5086917;27;43426;-71
2023/01/16 11:11:03;;;;;;;4.20;2.70;;;17.30;67.00;;;;;;5072382;28;43590;-71
2023/01/16 11:19:26;;;;;;;2.53;2.37;;;17.30;67.10;;;;;;5058847;27;43391;-70
2023/01/16 11:21:55;;;;;;;2.83;2.63;;;17.20;67.70;;;;;;5088304;27;44032;-70
2023/01/16 11:24:33;;;;;;;2.70;2.60;;;17.30;67.10;;;;;;5065654;27;45255;-72
2023/01/16 11:27:01;;;;;;;2.30;2.20;;;17.30;67.10;;;;;;5097739;27;44044;-71
2023/01/16 11:29:31;;;;;;;2.80;2.60;;;17.30;67.10;;;;;;5076730;27;43388;-70
2023/01/16 11:32:01;;;;;;;2.67;2.47;;;17.20;67.00;;;;;;5091815;27;43625;-70
2023/01/16 11:34:29;;;;;;;2.57;2.37;;;17.20;67.00;;;;;;5098626;27;43913;-71
2023/01/16 11:36:58;;;;;;;2.20;2.10;;;17.20;67.00;;;;;;5102150;27;43436;-72
2023/01/16 11:39:29;;;;;;;2.40;2.27;;;17.30;66.80;;;;;;5090490;27;43419;-72
2023/01/16 11:41:58;;;;;;;2.40;2.30;;;17.40;66.40;;;;;;5102299;27;43445;-71
2023/01/16 11:47:18;;;;;;;2.60;2.40;;;17.50;66.30;;;;;;5103226;27;43469;-70
2023/01/16 11:49:47;;;;;;;2.30;2.20;;;17.40;66.30;;;;;;5105841;27;43470;-71
2023/01/16 11:52:26;;;;;;;4.10;2.00;;;17.40;66.30;;;;;;5085503;27;44032;-70
2023/01/16 11:54:55;;;;;;;6.37;2.20;;;17.40;66.40;;;;;;5104748;27;43739;-70
2023/01/16 11:57:43;;;;;;;2.43;2.23;;;17.40;66.50;;;;;;5102485;27;43479;-70
2023/01/16 12:00:26;;;;;;;2.20;1.87;;;17.40;66.70;;;;;;5079337;28;43479;-70
2023/01/16 12:03:26;;;;;;;2.20;2.00;;;17.30;66.70;;;;;;5094564;27;43382;-71
2023/01/16 12:06:02;;;;;;;2.17;1.97;;;17.30;66.80;;;;;;5040531;27;45429;-70
2023/01/16 12:09:03;;;;;;;2.40;2.00;;;17.30;67.30;;;;;;5102782;27;43409;-71
2023/01/16 12:11:43;;;;;;;2.53;2.33;;;17.30;66.90;;;;;;5091801;27;43429;-72
2023/01/16 12:14:18;;;;;;;1.70;1.60;;;17.30;67.00;;;;;;5076426;28;43678;-72
2023/01/16 12:17:03;;;;;;;2.23;2.13;;;17.30;67.00;;;;;;5099044;27;43805;-71
2023/01/16 12:19:51;;;;;;;1.90;1.80;;;17.20;67.00;;;;;;5088298;27;44681;-70
2023/01/16 12:22:24;;;;;;;2.00;1.80;;;17.20;67.00;;;;;;5100703;27;43378;-71
2023/01/16 12:24:54;;;;;;;1.80;1.70;;;17.30;66.90;;;;;;5097761;27;43364;-71
2023/01/16 12:27:39;;;;;;;1.50;1.40;;;17.40;66.60;;;;;;5099956;27;43692;-71
2023/01/16 12:30:11;;;;;;;2.07;1.87;;;17.40;66.30;;;;;;5092668;27;43507;-72
2023/01/16 12:32:46;;;;;;;1.60;1.60;;;17.40;66.40;;;;;;5089315;27;43391;-70
2023/01/16 12:35:31;;;;;;;1.43;1.43;;;17.40;66.60;;;;;;5093970;27;44075;-71
2023/01/16 12:38:17;;;;;;;1.77;1.67;;;17.40;66.60;;;;;;5103239;27;43894;-71
2023/01/16 12:44:14;;;;;;;1.63;1.60;;;17.30;66.70;;;;;;5101108;27;43402;-71
2023/01/16 12:46:45;;;;;;;1.50;1.50;;;17.30;66.80;;;;;;5075933;27;43573;-70
2023/01/16 12:49:30;;;;;;;1.73;1.73;;;17.30;66.90;;;;;;5098348;27;43801;-72
2023/01/16 12:52:05;;;;;;;1.70;1.60;;;17.20;66.90;;;;;;5100703;27;43423;-71
2023/01/16 12:54:42;;;;;;;1.40;1.40;;;17.20;66.90;;;;;;5082368;27;43482;-70
2023/01/16 12:57:35;;;;;;;1.50;1.50;;;17.20;66.90;;;;;;5099740;27;43398;-70
2023/01/16 13:00:05;;;;;;;1.60;1.60;;;17.20;66.90;;;;;;5089966;27;44041;-72
2023/01/16 13:02:36;;;;;;;1.77;1.67;;;17.20;67.00;;;;;;5094493;27;43481;-71
2023/01/16 13:05:06;;;;;;;1.63;1.53;;;17.20;67.00;;;;;;5101580;27;43329;-70
2023/01/16 13:07:35;;;;;;;1.70;1.53;;;17.20;67.00;;;;;;5096924;27;43443;-71
2023/01/16 13:15:37;;;;;;;1.20;1.20;;;17.20;67.00;;;;;;5074842;27;43392;-71
2023/01/16 13:18:08;;;;;;;1.50;1.50;;;17.20;67.00;;;;;;5084963;27;43416;-71
2023/01/16 13:20:36;;;;;;;1.40;1.40;;;17.20;67.00;;;;;;5078611;27;45897;-70
2023/01/16 13:23:05;;;;;;;1.37;1.37;;;17.20;67.00;;;;;;5100154;27;43446;-71
2023/01/16 13:25:36;;;;;;;1.60;1.53;;;17.10;66.90;;;;;;5100744;27;43501;-71
2023/01/16 13:28:06;;;;;;;1.40;1.40;;;17.20;66.80;;;;;;5075817;27;43505;-70
2023/01/16 13:30:34;;;;;;;2.27;1.60;;;17.30;66.50;;;;;;5099899;27;43941;-71
2023/01/16 13:33:04;;;;;;;1.37;1.37;;;17.40;66.10;;;;;;5078010;27;44750;-71
2023/01/16 13:35:34;;;;;;;1.50;1.40;;;17.50;65.90;;;;;;5083655;27;43964;-72
2023/01/16 13:38:24;;;;;;;1.33;1.33;;;17.50;66.70;;;;;;5081849;27;44105;-71
2023/01/16 13:41:11;;;;;;;1.77;1.70;;;17.40;66.00;;;;;;5067194;27;45870;-70
2023/01/16 13:46:40;;;;;;;1.20;1.20;;;17.40;66.10;;;;;;4998524;28;43549;-72
2023/01/16 13:49:13;;;;;;;2.20;1.20;;;17.40;66.30;;;;;;5003956;28;43592;-71
2023/01/16 13:51:43;;;;;;;1.67;1.57;;;17.30;66.30;;;;;;5045896;27;43598;-71
2023/01/16 13:54:14;;;;;;;1.53;1.43;;;17.30;66.50;;;;;;5101087;27;43487;-71
2023/01/16 13:56:44;;;;;;;1.30;1.30;;;17.30;66.60;;;;;;5097234;27;43417;-71
2023/01/16 13:59:26;;;;;;;1.47;1.47;;;17.30;66.60;;;;;;5102291;27;43522;-71
2023/01/16 14:01:56;;;;;;;1.37;1.30;;;17.30;66.70;;;;;;5099617;27;43995;-71
2023/01/16 14:04:32;;;;;;;1.20;1.20;;;17.30;66.70;;;;;;5080351;27;44830;-72
2023/01/16 14:10:07;;;;;;;1.20;1.20;;;17.20;66.70;;;;;;5095960;27;43885;-71